createdAt,value
2023-01-21T00:01:20.718Z,24.20
2023-01-21T00:03:48.128Z,20.03
2023-01-21T00:06:15.980Z,17.77
2023-01-21T00:08:43.852Z,20.10
2023-01-21T00:11:15.290Z,19.43
2023-01-21T00:13:44.535Z,18.07
2023-01-21T00:16:13.674Z,17.70
2023-01-21T00:18:41.820Z,21.50
2023-01-21T00:21:10.264Z,24.17
2023-01-21T00:23:37.586Z,30.00
2023-01-21T00:26:08.615Z,32.47
2023-01-21T00:28:37.202Z,37.90
2023-01-21T00:31:09.160Z,36.20
2023-01-21T00:33:37.256Z,31.40
2023-01-21T00:36:09.042Z,38.10
2023-01-21T00:38:37.867Z,36.28
2023-01-21T00:41:13.128Z,34.63
2023-01-21T00:43:42.078Z,32.92
2023-01-21T00:46:11.068Z,35.53
2023-01-21T00:48:38.860Z,32.15
2023-01-21T00:51:07.020Z,31.77
2023-01-21T00:53:38.382Z,28.98
2023-01-21T00:56:10.427Z,28.23
2023-01-21T00:58:38.219Z,29.03
2023-01-21T01:01:13.626Z,24.33
2023-01-21T01:03:42.428Z,24.17
2023-01-21T01:06:15.562Z,26.40
2023-01-21T01:08:44.364Z,24.07
2023-01-21T01:11:13.380Z,23.90
2023-01-21T01:13:41.156Z,23.73
2023-01-21T01:16:10.734Z,19.90
2023-01-21T01:18:38.390Z,23.03
2023-01-21T01:21:06.830Z,23.53
2023-01-21T01:23:34.129Z,20.70
2023-01-21T01:26:06.081Z,19.23
2023-01-21T01:28:34.686Z,20.60
2023-01-21T01:31:08.695Z,20.92
2023-01-21T01:33:36.036Z,20.43
2023-01-21T01:36:14.124Z,18.17
2023-01-21T01:38:41.787Z,18.53
2023-01-21T01:41:16.462Z,25.67
2023-01-21T01:44:00.865Z,26.03
2023-01-21T01:46:37.193Z,21.10
2023-01-21T01:49:07.234Z,21.92
2023-01-21T01:51:42.817Z,19.13
2023-01-21T01:54:14.545Z,15.67
2023-01-21T01:56:48.095Z,16.80
2023-01-21T01:59:16.326Z,18.43
2023-01-21T02:01:43.993Z,18.80
2023-01-21T02:04:21.031Z,19.20
2023-01-21T02:06:52.040Z,20.90
2023-01-21T02:09:19.547Z,18.27
2023-01-21T02:11:47.394Z,20.90
2023-01-21T02:14:14.776Z,22.20
2023-01-21T02:17:14.577Z,19.70
2023-01-21T02:19:50.086Z,18.27
2023-01-21T02:22:30.876Z,17.70
2023-01-21T02:25:54.911Z,18.20
2023-01-21T02:29:05.080Z,20.03
2023-01-21T02:31:53.078Z,19.27
2023-01-21T02:34:35.367Z,17.70
2023-01-21T02:37:51.823Z,17.97
2023-01-21T02:40:58.148Z,21.05
2023-01-21T02:44:08.061Z,16.53
2023-01-21T02:46:48.967Z,16.03
2023-01-21T02:49:45.553Z,15.27
2023-01-21T02:52:26.418Z,15.23
2023-01-21T02:55:00.113Z,15.60
2023-01-21T02:57:47.624Z,17.85
2023-01-21T03:00:53.654Z,16.58
2023-01-21T03:03:44.211Z,16.83
2023-01-21T03:06:44.715Z,16.97
2023-01-21T03:09:31.055Z,17.57
2023-01-21T03:12:22.607Z,13.87
2023-01-21T03:15:31.832Z,13.70
2023-01-21T03:18:25.282Z,15.40
2023-01-21T03:21:25.136Z,14.18
2023-01-21T03:23:55.299Z,16.17
2023-01-21T03:26:35.871Z,15.00
2023-01-21T03:29:16.802Z,14.97
2023-01-21T03:31:50.330Z,18.33
2023-01-21T03:34:21.388Z,15.55
2023-01-21T03:37:05.417Z,17.27
2023-01-21T03:40:20.969Z,18.13
2023-01-21T03:42:51.152Z,17.40
2023-01-21T03:45:45.783Z,16.00
2023-01-21T03:48:52.895Z,15.33
2023-01-21T03:51:39.083Z,13.97
2023-01-21T03:54:06.680Z,12.87
2023-01-21T03:56:33.979Z,12.97
2023-01-21T03:59:01.620Z,14.00
2023-01-21T04:01:28.916Z,16.57
2023-01-21T04:03:56.488Z,16.20
2023-01-21T04:06:24.213Z,14.25
2023-01-21T04:08:51.772Z,13.50
2023-01-21T04:11:19.073Z,13.33
2023-01-21T04:13:46.611Z,14.20
2023-01-21T04:16:13.940Z,13.50
2023-01-21T04:18:41.483Z,13.07
2023-01-21T04:21:08.909Z,14.00
2023-01-21T04:23:36.442Z,13.17
2023-01-21T04:26:03.790Z,14.50
2023-01-21T04:28:31.424Z,15.80
2023-01-21T04:30:58.707Z,17.63
2023-01-21T04:33:26.688Z,20.05
2023-01-21T04:35:59.678Z,22.00
2023-01-21T04:38:28.187Z,16.47
2023-01-21T04:40:55.577Z,13.97
2023-01-21T04:43:23.170Z,15.23
2023-01-21T04:45:50.718Z,14.83
2023-01-21T04:48:18.580Z,10.87
2023-01-21T04:50:47.454Z,12.97
2023-01-21T04:53:15.090Z,12.87
2023-01-21T04:55:42.303Z,12.07
2023-01-21T04:58:09.981Z,12.43
2023-01-21T05:00:37.339Z,13.43
2023-01-21T05:03:05.109Z,12.60
2023-01-21T05:05:32.314Z,10.57
2023-01-21T05:07:59.988Z,11.40
2023-01-21T05:10:27.341Z,9.82
2023-01-21T05:12:54.918Z,11.67
2023-01-21T05:15:22.324Z,9.23
2023-01-21T05:17:49.915Z,9.13
2023-01-21T05:20:17.729Z,8.87
2023-01-21T05:22:48.942Z,10.50
2023-01-21T05:25:17.025Z,10.93
2023-01-21T05:27:44.616Z,11.53
2023-01-21T05:30:12.194Z,11.70
2023-01-21T05:32:40.953Z,10.43
2023-01-21T05:35:09.051Z,10.80
2023-01-21T05:37:36.617Z,10.90
2023-01-21T05:40:04.391Z,10.27
2023-01-21T05:42:31.963Z,12.40
2023-01-21T05:45:01.558Z,10.52
2023-01-21T05:47:29.208Z,11.57
2023-01-21T05:49:56.488Z,12.52
2023-01-21T05:52:24.083Z,15.57
2023-01-21T05:55:01.429Z,11.73
2023-01-21T05:57:31.604Z,11.83
2023-01-21T05:59:59.237Z,12.20
2023-01-21T06:02:27.441Z,11.63
2023-01-21T06:04:54.839Z,12.60
2023-01-21T06:07:22.443Z,13.53
2023-01-21T06:09:49.735Z,12.13
2023-01-21T06:12:17.309Z,15.93
2023-01-21T06:14:44.545Z,13.30
2023-01-21T06:17:12.161Z,14.27
2023-01-21T06:19:39.375Z,13.63
2023-01-21T06:22:06.909Z,14.10
2023-01-21T06:24:34.298Z,12.60
2023-01-21T06:27:01.983Z,11.60
2023-01-21T06:29:29.232Z,12.63
2023-01-21T06:31:56.840Z,14.27
2023-01-21T06:34:24.169Z,12.50
2023-01-21T06:36:51.759Z,13.43
2023-01-21T06:39:19.196Z,13.37
2023-01-21T06:41:46.719Z,14.43
2023-01-21T06:44:14.150Z,12.67
2023-01-21T06:46:45.965Z,11.43
2023-01-21T06:49:19.549Z,14.70
2023-01-21T06:51:47.220Z,13.30
2023-01-21T06:54:14.620Z,14.17
2023-01-21T06:56:43.728Z,12.67
2023-01-21T06:59:11.263Z,13.30
2023-01-21T07:01:38.837Z,11.37
2023-01-21T07:04:06.142Z,14.50
2023-01-21T07:06:33.771Z,13.93
2023-01-21T07:09:01.343Z,13.10
2023-01-21T07:11:28.887Z,14.47
2023-01-21T07:13:56.167Z,15.48
2023-01-21T07:16:24.237Z,12.20
2023-01-21T07:18:51.557Z,13.32
2023-01-21T07:21:19.533Z,11.73
2023-01-21T07:23:47.100Z,12.37
2023-01-21T07:26:15.353Z,15.43
2023-01-21T07:28:42.629Z,14.07
2023-01-21T07:31:10.261Z,17.55
2023-01-21T07:33:37.797Z,19.13
2023-01-21T07:36:06.047Z,19.23
2023-01-21T07:38:33.990Z,24.40
2023-01-21T07:41:01.651Z,25.20
2023-01-21T07:43:28.998Z,26.37
2023-01-21T07:45:59.904Z,27.48
2023-01-21T07:48:27.454Z,31.70
2023-01-21T07:50:58.887Z,24.70
2023-01-21T07:53:27.049Z,26.80
2023-01-21T07:55:54.611Z,28.37
2023-01-21T07:58:21.944Z,27.80
2023-01-21T08:00:49.657Z,22.67
2023-01-21T08:03:20.126Z,23.80
2023-01-21T08:05:47.828Z,19.03
2023-01-21T08:08:15.163Z,19.80
2023-01-21T08:10:42.783Z,18.58
2023-01-21T08:13:10.188Z,15.77
2023-01-21T08:15:37.868Z,16.58
2023-01-21T08:18:05.234Z,17.20
2023-01-21T08:20:32.937Z,17.23
2023-01-21T08:23:01.476Z,17.47
2023-01-21T08:25:29.006Z,20.27
2023-01-21T08:27:59.329Z,23.97
2023-01-21T08:30:27.195Z,23.70
2023-01-21T08:32:54.661Z,34.77
2023-01-21T08:35:22.255Z,33.57
2023-01-21T08:37:50.001Z,28.30
2023-01-21T08:40:17.701Z,27.17
2023-01-21T08:42:45.004Z,23.23
2023-01-21T08:45:15.144Z,27.85
2023-01-21T08:47:42.673Z,23.90
2023-01-21T08:50:11.230Z,25.07
2023-01-21T08:52:38.551Z,26.23
2023-01-21T08:55:06.942Z,28.00
2023-01-21T08:57:34.637Z,20.45
2023-01-21T09:00:02.216Z,22.90
2023-01-21T09:02:29.601Z,24.92
2023-01-21T09:04:57.310Z,28.15
2023-01-21T09:07:24.647Z,29.63
2023-01-21T09:09:52.227Z,34.87
2023-01-21T09:12:19.735Z,25.38
2023-01-21T09:14:47.330Z,22.48
2023-01-21T09:17:14.675Z,22.98
2023-01-21T09:19:42.351Z,24.13
2023-01-21T09:22:09.753Z,20.95
2023-01-21T09:24:37.745Z,19.80
2023-01-21T09:27:07.839Z,20.67
2023-01-21T09:29:35.670Z,26.90
2023-01-21T09:32:05.315Z,21.77
2023-01-21T09:34:35.436Z,22.40
2023-01-21T09:37:05.152Z,21.35
2023-01-21T09:39:32.776Z,20.67
2023-01-21T09:42:00.187Z,25.37
2023-01-21T09:44:49.233Z,24.13
2023-01-21T09:47:39.420Z,28.38
2023-01-21T09:50:35.144Z,23.27
2023-01-21T09:53:26.328Z,21.27
2023-01-21T09:55:59.617Z,25.43
2023-01-21T09:59:02.496Z,24.42
2023-01-21T10:01:40.512Z,29.00
2023-01-21T10:04:22.633Z,31.73
2023-01-21T10:07:08.585Z,28.52
2023-01-21T10:10:17.078Z,28.00
2023-01-21T10:13:25.464Z,26.10
2023-01-21T10:16:13.415Z,23.90
2023-01-21T10:18:47.539Z,27.40
2023-01-21T10:21:23.720Z,25.77
2023-01-21T10:23:59.653Z,27.85
2023-01-21T10:26:29.880Z,34.35
2023-01-21T10:28:57.531Z,38.20
2023-01-21T10:31:36.038Z,27.08
2023-01-21T10:34:20.223Z,27.90
2023-01-21T10:37:43.262Z,27.00
2023-01-21T10:40:43.931Z,24.33
2023-01-21T10:43:47.592Z,28.92
2023-01-21T10:47:02.625Z,29.60
2023-01-21T10:50:00.550Z,28.70
2023-01-21T10:52:39.807Z,24.45
2023-01-21T10:55:45.972Z,24.65
2023-01-21T10:58:41.064Z,23.45
2023-01-21T11:01:20.961Z,24.58
2023-01-21T11:03:54.970Z,28.58
2023-01-21T11:06:25.086Z,27.05
2023-01-21T11:09:03.090Z,30.67
2023-01-21T11:11:36.975Z,34.80
2023-01-21T11:14:04.578Z,35.45
2023-01-21T11:16:43.069Z,33.60
2023-01-21T11:19:16.566Z,36.50
2023-01-21T11:22:04.417Z,34.37
2023-01-21T11:24:52.822Z,31.27
2023-01-21T11:27:22.540Z,37.35
2023-01-21T11:29:50.957Z,34.92
2023-01-21T11:32:30.421Z,46.43
2023-01-21T11:35:23.243Z,33.92
2023-01-21T11:37:50.785Z,31.45
2023-01-21T11:40:26.066Z,32.40
2023-01-21T11:42:56.628Z,30.97
2023-01-21T11:45:33.092Z,31.35
2023-01-21T11:48:01.791Z,35.23
2023-01-21T11:50:37.975Z,30.67
2023-01-21T11:53:09.096Z,33.33
2023-01-21T11:55:51.555Z,42.85
2023-01-21T11:58:31.532Z,35.63
2023-01-21T12:01:18.940Z,31.75
2023-01-21T12:03:57.331Z,27.33
2023-01-21T12:06:32.026Z,26.48
2023-01-21T12:09:07.940Z,30.38
2023-01-21T12:11:35.624Z,31.43
2023-01-21T12:14:44.271Z,30.48
2023-01-21T12:17:45.254Z,39.60
2023-01-21T12:20:58.458Z,32.05
2023-01-21T12:23:36.112Z,31.50
2023-01-21T12:26:34.055Z,31.57
2023-01-21T12:29:09.511Z,28.60
2023-01-21T12:31:45.627Z,32.55
2023-01-21T12:34:32.423Z,34.10
2023-01-21T12:37:11.674Z,34.28
2023-01-21T12:39:42.576Z,34.13
2023-01-21T12:42:43.617Z,36.10
2023-01-21T12:45:17.976Z,33.33
2023-01-21T12:47:51.429Z,28.67
2023-01-21T12:50:30.376Z,30.25
2023-01-21T12:53:09.973Z,41.65
2023-01-21T12:55:58.968Z,39.33
2023-01-21T12:58:38.356Z,32.58
2023-01-21T13:01:31.258Z,31.08
2023-01-21T13:04:30.194Z,31.15
2023-01-21T13:07:14.882Z,34.23
2023-01-21T13:09:58.144Z,37.55
2023-01-21T13:12:30.878Z,36.13
2023-01-21T13:15:25.131Z,50.33
2023-01-21T13:17:59.904Z,42.28
2023-01-21T13:20:30.185Z,39.92
2023-01-21T13:23:29.444Z,35.13
2023-01-21T13:26:29.159Z,34.15
2023-01-21T13:29:17.675Z,40.92
2023-01-21T13:32:11.914Z,37.77
2023-01-21T13:34:51.505Z,39.40
2023-01-21T13:37:49.207Z,43.33
2023-01-21T13:40:28.913Z,35.80
2023-01-21T13:43:08.189Z,35.97
2023-01-21T13:46:03.665Z,50.17
2023-01-21T13:49:25.568Z,42.38
2023-01-21T13:52:01.914Z,43.63
2023-01-21T13:54:34.619Z,31.42
2023-01-21T13:57:55.579Z,33.42
2023-01-21T14:00:37.902Z,29.80
2023-01-21T14:03:08.311Z,32.47
2023-01-21T14:05:45.472Z,38.90
2023-01-21T14:08:47.674Z,30.27
2023-01-21T14:11:31.783Z,31.40
2023-01-21T14:14:18.822Z,29.80
2023-01-21T14:17:23.626Z,39.45
2023-01-21T14:20:12.822Z,38.33
2023-01-21T14:22:52.097Z,40.53
2023-01-21T14:25:22.514Z,36.30
2023-01-21T14:28:33.899Z,37.40
2023-01-21T14:31:15.357Z,35.80
2023-01-21T14:33:48.822Z,41.50
2023-01-21T14:36:38.658Z,35.60
2023-01-21T14:39:34.862Z,34.55
2023-01-21T14:42:14.910Z,35.22
2023-01-21T14:44:43.595Z,36.55
2023-01-21T14:47:40.221Z,33.63
2023-01-21T14:50:10.277Z,43.65
2023-01-21T14:52:47.392Z,41.75
2023-01-21T14:55:31.363Z,51.95
2023-01-21T14:58:01.875Z,38.78
2023-01-21T15:00:32.839Z,34.60
2023-01-21T15:03:27.132Z,33.35
2023-01-21T15:06:09.905Z,31.63
2023-01-21T15:08:46.408Z,33.08
2023-01-21T15:11:38.807Z,32.83
2023-01-21T15:14:25.989Z,28.65
2023-01-21T15:16:53.562Z,34.58
2023-01-21T15:19:36.370Z,37.40
2023-01-21T15:22:15.568Z,35.15
2023-01-21T15:25:20.966Z,31.73
2023-01-21T15:28:40.463Z,30.23
2023-01-21T15:31:40.214Z,32.38
2023-01-21T15:34:18.465Z,33.80
2023-01-21T15:36:53.449Z,30.42
2023-01-21T15:39:34.652Z,28.93
2023-01-21T15:42:38.480Z,29.53
2023-01-21T15:45:26.678Z,24.70
2023-01-21T15:48:42.525Z,29.30
2023-01-21T15:51:20.805Z,28.17
2023-01-21T15:54:48.208Z,41.43
2023-01-21T15:57:50.609Z,33.37
2023-01-21T16:00:29.752Z,31.25
2023-01-21T16:03:35.483Z,38.37
2023-01-21T16:06:29.550Z,33.67
2023-01-21T16:09:10.141Z,40.87
2023-01-21T16:12:23.253Z,46.57
2023-01-21T16:15:30.513Z,37.13
2023-01-21T16:18:12.847Z,34.93
2023-01-21T16:20:47.850Z,40.60
2023-01-21T16:23:19.093Z,43.53
2023-01-21T16:25:52.875Z,38.13
2023-01-21T16:28:21.656Z,45.40
2023-01-21T16:30:59.250Z,39.43
2023-01-21T16:33:27.026Z,42.83
2023-01-21T16:36:01.121Z,49.73
2023-01-21T16:38:32.375Z,43.90
2023-01-21T16:41:08.509Z,43.60
2023-01-21T16:43:45.682Z,39.60
2023-01-21T16:46:17.989Z,42.60
2023-01-21T16:48:57.518Z,35.10
2023-01-21T16:51:33.461Z,43.30
2023-01-21T16:54:33.837Z,42.78
2023-01-21T16:57:25.783Z,58.23
2023-01-21T16:59:56.012Z,63.63
2023-01-21T17:02:34.103Z,64.07
2023-01-21T17:05:08.314Z,63.90
2023-01-21T17:07:50.745Z,67.75
2023-01-21T17:10:24.612Z,83.10
2023-01-21T17:13:16.223Z,77.83
2023-01-21T17:15:57.544Z,78.93
2023-01-21T17:18:42.866Z,68.67
2023-01-21T17:21:17.147Z,69.90
2023-01-21T17:23:55.668Z,66.50
2023-01-21T17:26:31.708Z,74.72
2023-01-21T17:29:21.245Z,67.73
2023-01-21T17:32:00.309Z,69.95
2023-01-21T17:34:40.568Z,70.07
2023-01-21T17:37:51.361Z,70.18
2023-01-21T17:40:58.900Z,61.60
2023-01-21T17:43:28.085Z,72.65
2023-01-21T17:45:58.194Z,64.50
2023-01-21T17:48:36.624Z,62.33
2023-01-21T17:51:13.905Z,64.73
2023-01-21T17:54:00.840Z,53.70
2023-01-21T17:56:37.778Z,55.15
2023-01-21T17:59:41.026Z,51.50
2023-01-21T18:02:15.072Z,53.60
2023-01-21T18:04:43.571Z,46.42
2023-01-21T18:07:30.046Z,55.20
2023-01-21T18:10:02.809Z,45.55
2023-01-21T18:12:30.165Z,41.97
2023-01-21T18:14:58.618Z,53.28
2023-01-21T18:17:26.327Z,54.67
2023-01-21T18:19:54.115Z,41.27
2023-01-21T18:22:30.521Z,47.13
2023-01-21T18:24:58.357Z,42.47
2023-01-21T18:27:26.411Z,40.23
2023-01-21T18:29:54.644Z,50.10
2023-01-21T18:32:22.101Z,48.83
2023-01-21T18:34:49.674Z,48.27
2023-01-21T18:37:19.545Z,53.93
2023-01-21T18:39:47.418Z,53.50
2023-01-21T18:42:18.225Z,50.33
2023-01-21T18:44:46.302Z,50.53
2023-01-21T18:47:19.489Z,44.17
2023-01-21T18:49:49.520Z,46.70
2023-01-21T18:52:21.334Z,42.50
2023-01-21T18:54:48.894Z,49.70
2023-01-21T18:57:21.674Z,46.42
2023-01-21T18:59:49.390Z,48.27
2023-01-21T19:02:20.174Z,45.10
2023-01-21T19:04:48.511Z,46.57
2023-01-21T19:07:21.572Z,59.73
2023-01-21T19:09:51.314Z,50.35
2023-01-21T19:12:21.358Z,45.47
2023-01-21T19:14:49.440Z,41.08
2023-01-21T19:17:27.627Z,38.78
2023-01-21T19:19:57.133Z,43.30
2023-01-21T19:22:24.902Z,49.67
2023-01-21T19:24:52.704Z,61.40
2023-01-21T19:27:32.172Z,55.17
2023-01-21T19:29:59.773Z,51.97
2023-01-21T19:32:27.151Z,86.95
2023-01-21T19:34:57.023Z,96.55
2023-01-21T19:37:25.699Z,106.78
2023-01-21T19:39:53.395Z,101.57
2023-01-21T19:42:21.085Z,96.83
2023-01-21T19:44:48.681Z,99.15
2023-01-21T19:47:27.799Z,91.87
2023-01-21T19:49:55.453Z,78.25
2023-01-21T19:52:22.783Z,75.67
2023-01-21T19:54:50.346Z,60.28
2023-01-21T19:57:18.188Z,50.37
2023-01-21T19:59:49.592Z,52.40
2023-01-21T20:02:17.053Z,48.30
2023-01-21T20:04:45.394Z,45.53
2023-01-21T20:07:15.572Z,47.13
2023-01-21T20:09:43.286Z,50.78
2023-01-21T20:12:13.559Z,56.30
2023-01-21T20:14:41.187Z,53.55
2023-01-21T20:17:14.175Z,47.33
2023-01-21T20:19:41.894Z,54.30
2023-01-21T20:22:10.741Z,49.53
2023-01-21T20:24:38.351Z,52.47
2023-01-21T20:27:09.356Z,55.97
2023-01-21T20:29:44.476Z,51.03
2023-01-21T20:32:12.096Z,58.03
2023-01-21T20:34:39.751Z,66.70
2023-01-21T20:37:09.225Z,62.07
2023-01-21T20:39:36.862Z,57.75
2023-01-21T20:42:04.386Z,56.77
2023-01-21T20:44:32.120Z,61.60
2023-01-21T20:47:01.093Z,64.10
2023-01-21T20:49:30.782Z,56.77
2023-01-21T20:51:58.156Z,70.53
2023-01-21T20:54:26.801Z,62.57
2023-01-21T20:56:54.104Z,59.27
2023-01-21T20:59:21.919Z,62.03
2023-01-21T21:01:51.416Z,70.22
2023-01-21T21:04:19.216Z,73.13
2023-01-21T21:06:46.564Z,66.30
2023-01-21T21:09:14.140Z,76.13
2023-01-21T21:11:41.455Z,79.63
2023-01-21T21:14:09.042Z,75.38
2023-01-21T21:16:36.519Z,70.20
2023-01-21T21:19:04.295Z,74.30
2023-01-21T21:21:31.620Z,97.17
2023-01-21T21:23:59.643Z,88.63
2023-01-21T21:26:33.569Z,67.43
2023-01-21T21:29:01.314Z,73.77
2023-01-21T21:31:32.126Z,89.13
2023-01-21T21:33:59.858Z,85.43
2023-01-21T21:36:27.454Z,96.17
2023-01-21T21:38:56.015Z,89.03
2023-01-21T21:41:45.074Z,91.70
2023-01-21T21:44:13.358Z,90.43
2023-01-21T21:47:00.023Z,86.47
2023-01-21T21:49:28.831Z,100.28
2023-01-21T21:51:57.080Z,103.17
2023-01-21T21:54:24.688Z,103.33
2023-01-21T21:56:52.302Z,114.00
2023-01-21T21:59:19.863Z,114.37
2023-01-21T22:01:47.240Z,106.33
2023-01-21T22:04:15.132Z,115.30
2023-01-21T22:06:42.461Z,116.87
2023-01-21T22:09:10.940Z,124.17
2023-01-21T22:11:38.516Z,114.97
2023-01-21T22:14:06.334Z,119.03
2023-01-21T22:16:34.211Z,125.17
2023-01-21T22:19:01.961Z,125.65
2023-01-21T22:21:33.100Z,128.20
2023-01-21T22:24:08.347Z,140.77
2023-01-21T22:26:36.219Z,140.53
2023-01-21T22:29:05.410Z,149.83
2023-01-21T22:31:33.906Z,136.80
2023-01-21T22:34:02.075Z,129.35
2023-01-21T22:36:31.657Z,135.33
2023-01-21T22:38:59.796Z,126.63
2023-01-21T22:41:28.146Z,133.93
2023-01-21T22:43:56.040Z,126.10
2023-01-21T22:46:27.166Z,127.97
2023-01-21T22:48:55.376Z,135.73
2023-01-21T22:51:23.710Z,136.90
2023-01-21T22:53:52.992Z,122.28
2023-01-21T22:56:31.492Z,108.10
2023-01-21T22:59:03.462Z,111.50
2023-01-21T23:01:31.811Z,105.03
2023-01-21T23:04:00.607Z,109.27
2023-01-21T23:06:28.666Z,113.23
2023-01-21T23:08:56.512Z,115.13
2023-01-21T23:11:23.887Z,110.97
2023-01-21T23:13:53.416Z,114.20
2023-01-21T23:16:21.386Z,121.83
2023-01-21T23:18:49.881Z,124.93
2023-01-21T23:21:21.502Z,135.60
2023-01-21T23:23:50.180Z,132.83
2023-01-21T23:26:19.537Z,126.47
2023-01-21T23:28:47.463Z,123.33
2023-01-21T23:31:17.585Z,124.17
2023-01-21T23:33:53.263Z,125.33
2023-01-21T23:36:20.653Z,121.83
2023-01-21T23:38:48.246Z,130.25
2023-01-21T23:41:21.204Z,132.57
2023-01-21T23:43:48.768Z,125.90
2023-01-21T23:46:19.850Z,129.13
2023-01-21T23:48:47.881Z,131.77
2023-01-21T23:51:17.358Z,128.07
2023-01-21T23:53:49.083Z,127.87
2023-01-21T23:56:21.857Z,129.67
2023-01-21T23:58:51.316Z,133.80
